createdAt,value
2023-03-29T00:00:40.219Z,684.00
2023-03-29T00:01:40.305Z,681.00
2023-03-29T00:02:40.490Z,678.00
2023-03-29T00:03:40.552Z,680.00
2023-03-29T00:04:40.492Z,681.00
2023-03-29T00:05:40.531Z,683.00
2023-03-29T00:06:40.596Z,684.00
2023-03-29T00:07:40.706Z,683.00
2023-03-29T00:08:40.709Z,683.00
2023-03-29T00:09:41.761Z,682.00
2023-03-29T00:10:40.829Z,679.00
2023-03-29T00:11:40.891Z,680.00
2023-03-29T00:12:41.030Z,682.00
2023-03-29T00:13:41.786Z,682.00
2023-03-29T00:14:41.083Z,679.00
2023-03-29T00:15:41.135Z,679.00
2023-03-29T00:16:41.247Z,679.00
2023-03-29T00:17:41.317Z,682.00
2023-03-29T00:18:41.323Z,678.00
2023-03-29T00:19:41.386Z,678.00
2023-03-29T00:20:41.492Z,680.00
2023-03-29T00:21:41.513Z,676.00
2023-03-29T00:22:41.571Z,677.00
2023-03-29T00:23:41.645Z,678.00
2023-03-29T00:24:41.714Z,682.00
2023-03-29T00:25:41.776Z,680.00
2023-03-29T00:26:41.852Z,683.00
2023-03-29T00:27:41.914Z,681.00
2023-03-29T00:28:42.052Z,682.00
2023-03-29T00:29:42.041Z,684.00
2023-03-29T00:30:42.108Z,683.00
2023-03-29T00:31:42.279Z,683.00
2023-03-29T00:32:42.279Z,685.00
2023-03-29T00:33:42.339Z,685.00
2023-03-29T00:34:42.452Z,684.00
2023-03-29T00:35:42.518Z,682.00
2023-03-29T00:36:42.482Z,680.00
2023-03-29T00:37:42.615Z,681.00
2023-03-29T00:38:42.631Z,682.00
2023-03-29T00:39:42.692Z,679.00
2023-03-29T00:40:42.747Z,675.00
2023-03-29T00:41:42.817Z,679.00
2023-03-29T00:42:42.883Z,677.00
2023-03-29T00:43:43.079Z,676.00
2023-03-29T00:44:43.018Z,676.00
2023-03-29T00:45:43.078Z,676.00
2023-03-29T00:46:43.176Z,676.00
2023-03-29T00:47:43.253Z,676.00
2023-03-29T00:48:43.308Z,677.00
2023-03-29T00:49:43.346Z,675.00
2023-03-29T00:50:43.416Z,675.00
2023-03-29T00:51:43.491Z,677.00
2023-03-29T00:52:43.553Z,682.00
2023-03-29T00:53:43.636Z,683.00
2023-03-29T00:54:43.686Z,682.00
2023-03-29T00:55:43.749Z,682.00
2023-03-29T00:56:43.867Z,680.00
2023-03-29T00:57:43.979Z,681.00
2023-03-29T00:58:43.955Z,681.00
2023-03-29T00:59:44.021Z,682.00
2023-03-29T01:00:44.173Z,677.00
2023-03-29T01:01:44.212Z,677.00
2023-03-29T01:02:44.327Z,677.00
2023-03-29T01:03:44.439Z,675.00
2023-03-29T01:04:44.357Z,677.00
2023-03-29T01:05:45.256Z,677.00
2023-03-29T01:06:44.621Z,676.00
2023-03-29T01:07:44.547Z,678.00
2023-03-29T01:08:44.645Z,677.00
2023-03-29T01:09:44.700Z,675.00
2023-03-29T01:10:44.773Z,675.00
2023-03-29T01:11:44.832Z,676.00
2023-03-29T01:12:44.901Z,674.00
2023-03-29T01:13:44.971Z,674.00
2023-03-29T01:14:45.035Z,672.00
2023-03-29T01:15:45.113Z,672.00
2023-03-29T01:16:45.302Z,673.00
2023-03-29T01:17:45.271Z,670.00
2023-03-29T01:18:45.315Z,665.00
2023-03-29T01:19:45.377Z,665.00
2023-03-29T01:20:45.449Z,665.00
2023-03-29T01:21:45.519Z,665.00
2023-03-29T01:22:45.582Z,668.00
2023-03-29T01:23:45.656Z,668.00
2023-03-29T01:24:45.739Z,668.00
2023-03-29T01:25:45.792Z,667.00
2023-03-29T01:26:45.862Z,671.00
2023-03-29T01:27:45.931Z,668.00
2023-03-29T01:28:45.992Z,664.00
2023-03-29T01:29:46.084Z,663.00
2023-03-29T01:30:46.129Z,664.00
2023-03-29T01:31:46.816Z,664.00
2023-03-29T01:32:46.300Z,665.00
2023-03-29T01:33:46.332Z,663.00
2023-03-29T01:34:46.410Z,664.00
2023-03-29T01:35:46.494Z,666.00
2023-03-29T01:36:46.539Z,667.00
2023-03-29T01:37:46.607Z,667.00
2023-03-29T01:38:46.681Z,664.00
2023-03-29T01:39:46.743Z,666.00
2023-03-29T01:40:46.806Z,668.00
2023-03-29T01:41:46.880Z,668.00
2023-03-29T01:42:46.938Z,670.00
2023-03-29T01:43:47.101Z,666.00
2023-03-29T01:44:47.082Z,667.00
2023-03-29T01:45:47.184Z,668.00
2023-03-29T01:46:47.213Z,670.00
2023-03-29T01:47:47.330Z,669.00
2023-03-29T01:48:47.346Z,667.00
2023-03-29T01:49:47.495Z,666.00
2023-03-29T01:50:47.482Z,665.00
2023-03-29T01:51:47.563Z,666.00
2023-03-29T01:52:47.612Z,666.00
2023-03-29T01:53:47.692Z,666.00
2023-03-29T01:54:47.747Z,668.00
2023-03-29T01:55:47.838Z,669.00
2023-03-29T01:56:47.927Z,667.00
2023-03-29T01:57:47.999Z,668.00
2023-03-29T01:58:48.795Z,666.00
2023-03-29T01:59:48.112Z,663.00
2023-03-29T02:00:48.167Z,662.00
2023-03-29T02:01:48.288Z,661.00
2023-03-29T02:02:48.352Z,662.00
2023-03-29T02:03:48.394Z,663.00
2023-03-29T02:04:48.438Z,666.00
2023-03-29T02:05:48.509Z,667.00
2023-03-29T02:06:48.574Z,663.00
2023-03-29T02:07:48.638Z,662.00
2023-03-29T02:08:48.699Z,664.00
2023-03-29T02:09:48.782Z,666.00
2023-03-29T02:10:48.840Z,666.00
2023-03-29T02:11:48.905Z,666.00
2023-03-29T02:12:49.750Z,664.00
2023-03-29T02:13:49.037Z,663.00
2023-03-29T02:14:49.110Z,660.00
2023-03-29T02:15:49.783Z,660.00
2023-03-29T02:16:49.245Z,663.00
2023-03-29T02:17:49.365Z,664.00
2023-03-29T02:18:49.379Z,663.00
2023-03-29T02:19:49.444Z,662.00
2023-03-29T02:20:49.497Z,661.00
2023-03-29T02:21:49.571Z,660.00
2023-03-29T02:22:49.761Z,660.00
2023-03-29T02:23:49.711Z,662.00
2023-03-29T02:24:49.765Z,657.00
2023-03-29T02:25:49.885Z,658.00
2023-03-29T02:26:49.896Z,658.00
2023-03-29T02:27:49.969Z,657.00
2023-03-29T02:28:50.029Z,654.00
2023-03-29T02:29:50.099Z,655.00
2023-03-29T02:30:50.213Z,655.00
2023-03-29T02:31:50.236Z,653.00
2023-03-29T02:32:50.359Z,654.00
2023-03-29T02:33:50.358Z,653.00
2023-03-29T02:34:50.429Z,653.00
2023-03-29T02:35:50.510Z,659.00
2023-03-29T02:36:50.638Z,654.00
2023-03-29T02:37:50.627Z,655.00
2023-03-29T02:38:50.750Z,656.00
2023-03-29T02:39:50.750Z,653.00
2023-03-29T02:40:50.812Z,654.00
2023-03-29T02:41:50.878Z,656.00
2023-03-29T02:42:50.951Z,652.00
2023-03-29T02:43:51.026Z,656.00
2023-03-29T02:44:51.077Z,656.00
2023-03-29T02:45:51.161Z,658.00
2023-03-29T02:46:51.270Z,657.00
2023-03-29T02:47:51.318Z,655.00
2023-03-29T02:48:51.350Z,655.00
2023-03-29T02:49:51.439Z,660.00
2023-03-29T02:50:51.481Z,654.00
2023-03-29T02:51:51.550Z,655.00
2023-03-29T02:52:51.641Z,655.00
2023-03-29T02:53:51.672Z,655.00
2023-03-29T02:54:51.734Z,653.00
2023-03-29T02:55:51.807Z,655.00
2023-03-29T02:56:51.896Z,654.00
2023-03-29T02:57:51.922Z,650.00
2023-03-29T02:58:51.985Z,652.00
2023-03-29T02:59:52.038Z,651.00
2023-03-29T03:00:52.116Z,652.00
2023-03-29T03:01:52.232Z,651.00
2023-03-29T03:02:52.457Z,651.00
2023-03-29T03:03:52.414Z,653.00
2023-03-29T03:04:52.353Z,653.00
2023-03-29T03:05:52.417Z,652.00
2023-03-29T03:06:52.486Z,648.00
2023-03-29T03:07:52.530Z,654.00
2023-03-29T03:08:52.589Z,655.00
2023-03-29T03:09:52.636Z,651.00
2023-03-29T03:10:52.717Z,650.00
2023-03-29T03:11:52.750Z,650.00
2023-03-29T03:12:52.806Z,648.00
2023-03-29T03:13:52.855Z,648.00
2023-03-29T03:14:52.906Z,647.00
2023-03-29T03:15:52.977Z,645.00
2023-03-29T03:16:53.036Z,645.00
2023-03-29T03:17:53.138Z,648.00
2023-03-29T03:18:53.112Z,648.00
2023-03-29T03:19:53.191Z,647.00
2023-03-29T03:20:53.240Z,646.00
2023-03-29T03:21:53.294Z,648.00
2023-03-29T03:22:53.435Z,652.00
2023-03-29T03:23:54.247Z,651.00
2023-03-29T03:24:53.454Z,656.00
2023-03-29T03:25:53.516Z,655.00
2023-03-29T03:26:53.569Z,657.00
2023-03-29T03:27:53.681Z,660.00
2023-03-29T03:28:53.667Z,661.00
2023-03-29T03:29:53.722Z,659.00
2023-03-29T03:30:53.768Z,658.00
2023-03-29T03:31:54.280Z,658.00
2023-03-29T03:32:53.906Z,655.00
2023-03-29T03:33:53.924Z,654.00
2023-03-29T03:34:53.971Z,650.00
2023-03-29T03:35:54.056Z,651.00
2023-03-29T03:36:54.077Z,649.00
2023-03-29T03:37:54.123Z,649.00
2023-03-29T03:38:54.176Z,651.00
2023-03-29T03:39:54.240Z,652.00
2023-03-29T03:40:54.300Z,655.00
2023-03-29T03:41:54.342Z,653.00
2023-03-29T03:42:54.396Z,653.00
2023-03-29T03:43:54.446Z,650.00
2023-03-29T03:44:54.485Z,646.00
2023-03-29T03:45:54.564Z,646.00
2023-03-29T03:46:54.600Z,646.00
2023-03-29T03:47:54.659Z,646.00
2023-03-29T03:48:54.686Z,646.00
2023-03-29T03:49:54.720Z,648.00
2023-03-29T03:50:54.760Z,648.00
2023-03-29T03:51:54.808Z,646.00
2023-03-29T03:52:54.861Z,647.00
2023-03-29T03:53:54.924Z,649.00
2023-03-29T03:54:54.952Z,651.00
2023-03-29T03:55:55.011Z,649.00
2023-03-29T03:56:55.231Z,647.00
2023-03-29T03:57:55.112Z,649.00
2023-03-29T03:58:55.216Z,653.00
2023-03-29T03:59:55.199Z,654.00
2023-03-29T04:00:55.258Z,653.00
2023-03-29T04:01:55.335Z,652.00
2023-03-29T04:02:55.458Z,654.00
2023-03-29T04:03:55.601Z,653.00
2023-03-29T04:04:55.469Z,652.00
2023-03-29T04:05:55.506Z,654.00
2023-03-29T04:06:55.553Z,655.00
2023-03-29T04:07:55.602Z,657.00
2023-03-29T04:08:56.242Z,659.00
2023-03-29T04:09:55.709Z,660.00
2023-03-29T04:10:55.741Z,662.00
2023-03-29T04:11:55.783Z,665.00
2023-03-29T04:12:55.885Z,667.00
2023-03-29T04:13:55.885Z,671.00
2023-03-29T04:14:55.941Z,670.00
2023-03-29T04:15:57.093Z,667.00
2023-03-29T04:16:56.046Z,667.00
2023-03-29T04:17:56.173Z,665.00
2023-03-29T04:18:56.162Z,668.00
2023-03-29T04:19:56.188Z,667.00
2023-03-29T04:20:56.240Z,664.00
2023-03-29T04:21:56.293Z,663.00
2023-03-29T04:22:56.351Z,662.00
2023-03-29T04:23:56.401Z,663.00
2023-03-29T04:24:56.442Z,666.00
2023-03-29T04:25:56.502Z,666.00
2023-03-29T04:26:56.545Z,667.00
2023-03-29T04:27:56.598Z,666.00
2023-03-29T04:28:56.678Z,668.00
2023-03-29T04:29:56.721Z,666.00
2023-03-29T04:30:56.751Z,664.00
2023-03-29T04:31:56.787Z,667.00
2023-03-29T04:32:56.908Z,667.00
2023-03-29T04:33:59.782Z,664.00
2023-03-29T04:34:56.893Z,663.00
2023-03-29T04:35:57.021Z,663.00
2023-03-29T04:36:56.915Z,660.00
2023-03-29T04:37:56.997Z,658.00
2023-03-29T04:38:56.945Z,657.00
2023-03-29T04:39:56.933Z,656.00
2023-03-29T04:40:56.943Z,657.00
2023-03-29T04:41:56.955Z,657.00
2023-03-29T04:42:57.037Z,655.00
2023-03-29T04:43:56.972Z,655.00
2023-03-29T04:44:56.994Z,655.00
2023-03-29T04:45:57.066Z,656.00
2023-03-29T04:46:56.979Z,653.00
2023-03-29T04:47:57.021Z,652.00
2023-03-29T04:48:57.058Z,653.00
2023-03-29T04:49:57.005Z,656.00
2023-03-29T04:50:57.018Z,657.00
2023-03-29T04:51:57.042Z,656.00
2023-03-29T04:52:57.023Z,657.00
2023-03-29T04:53:57.034Z,659.00
2023-03-29T04:54:57.088Z,658.00
2023-03-29T04:55:57.029Z,659.00
2023-03-29T04:56:57.078Z,660.00
2023-03-29T04:57:57.044Z,662.00
2023-03-29T04:58:57.048Z,661.00
2023-03-29T04:59:57.059Z,666.00
2023-03-29T05:00:57.060Z,668.00
2023-03-29T05:01:57.379Z,669.00
2023-03-29T05:02:57.076Z,670.00
2023-03-29T05:03:57.114Z,671.00
2023-03-29T05:04:57.073Z,666.00
2023-03-29T05:05:57.076Z,667.00
2023-03-29T05:06:57.082Z,669.00
2023-03-29T05:07:57.103Z,670.00
2023-03-29T05:08:57.091Z,673.00
2023-03-29T05:09:57.095Z,672.00
2023-03-29T05:10:57.094Z,673.00
2023-03-29T05:11:57.115Z,674.00
2023-03-29T05:12:57.112Z,672.00
2023-03-29T05:13:57.112Z,675.00
2023-03-29T05:14:57.112Z,676.00
2023-03-29T05:15:57.184Z,679.00
2023-03-29T05:16:57.147Z,685.00
2023-03-29T05:17:57.234Z,687.00
2023-03-29T05:18:57.260Z,689.00
2023-03-29T05:19:57.328Z,693.00
2023-03-29T05:20:57.388Z,696.00
2023-03-29T05:21:57.422Z,707.00
2023-03-29T05:22:57.467Z,723.00
2023-03-29T05:23:57.492Z,727.00
2023-03-29T05:24:57.623Z,770.00
2023-03-29T05:25:57.578Z,807.00
2023-03-29T05:26:57.678Z,831.00
2023-03-29T05:27:57.658Z,868.00
2023-03-29T05:28:57.697Z,896.00
2023-03-29T05:29:57.737Z,903.00
2023-03-29T05:30:57.775Z,905.00
2023-03-29T05:31:57.877Z,881.00
2023-03-29T05:32:57.904Z,869.00
2023-03-29T05:33:57.901Z,854.00
2023-03-29T05:34:57.940Z,853.00
2023-03-29T05:35:58.058Z,850.00
2023-03-29T05:36:58.003Z,842.00
2023-03-29T05:37:58.043Z,838.00
2023-03-29T05:38:58.737Z,834.00
2023-03-29T05:40:05.772Z,830.00
2023-03-29T05:40:59.929Z,822.00
2023-03-29T05:41:58.166Z,808.00
2023-03-29T05:42:58.142Z,794.00
2023-03-29T05:43:58.137Z,787.00
2023-03-29T05:44:58.142Z,780.00
2023-03-29T05:45:58.177Z,775.00
2023-03-29T05:46:58.143Z,781.00
2023-03-29T05:47:58.256Z,776.00
2023-03-29T05:48:58.157Z,774.00
2023-03-29T05:49:58.160Z,774.00
2023-03-29T05:50:58.168Z,772.00
2023-03-29T05:51:58.168Z,772.00
2023-03-29T05:52:58.191Z,774.00
2023-03-29T05:53:58.753Z,774.00
2023-03-29T05:54:58.246Z,779.00
2023-03-29T05:55:58.213Z,780.00
2023-03-29T05:56:58.284Z,783.00
2023-03-29T05:57:58.229Z,785.00
2023-03-29T05:58:58.747Z,791.00
2023-03-29T05:59:58.746Z,810.00
2023-03-29T06:00:58.264Z,823.00
2023-03-29T06:01:58.362Z,842.00
2023-03-29T06:03:03.786Z,844.00
2023-03-29T06:03:59.503Z,837.00
2023-03-29T06:04:58.463Z,831.00
2023-03-29T06:05:58.388Z,824.00
2023-03-29T06:06:59.253Z,821.00
2023-03-29T06:07:58.440Z,825.00
2023-03-29T06:08:58.375Z,824.00
2023-03-29T06:09:58.385Z,821.00
2023-03-29T06:10:59.935Z,815.00
2023-03-29T06:11:58.363Z,816.00
2023-03-29T06:12:58.373Z,819.00
2023-03-29T06:13:58.405Z,821.00
2023-03-29T06:14:58.511Z,822.00
2023-03-29T06:15:58.501Z,822.00
2023-03-29T06:16:58.563Z,818.00
2023-03-29T06:17:58.713Z,818.00
2023-03-29T06:18:58.648Z,817.00
2023-03-29T06:19:58.708Z,860.00
2023-03-29T06:20:59.800Z,868.00
2023-03-29T06:21:58.803Z,874.00
2023-03-29T06:22:58.858Z,895.00
2023-03-29T06:23:58.891Z,937.00
2023-03-29T06:24:58.935Z,1106.00
2023-03-29T06:25:58.987Z,1114.00
2023-03-29T06:26:59.993Z,1137.00
2023-03-29T06:27:59.045Z,1134.00
2023-03-29T06:28:59.055Z,1147.00
2023-03-29T06:29:58.999Z,1107.00
2023-03-29T06:30:59.033Z,1119.00
2023-03-29T06:31:59.007Z,1133.00
2023-03-29T06:32:59.086Z,1138.00
2023-03-29T06:33:59.000Z,1143.00
2023-03-29T06:34:59.090Z,1137.00
2023-03-29T06:35:59.046Z,1125.00
2023-03-29T06:36:59.001Z,1098.00
2023-03-29T06:37:59.745Z,1088.00
2023-03-29T06:38:59.013Z,1073.00
2023-03-29T06:39:59.014Z,1064.00
2023-03-29T06:40:59.030Z,1057.00
2023-03-29T06:41:59.936Z,1048.00
2023-03-29T06:42:59.034Z,1054.00
2023-03-29T06:43:59.029Z,1008.00
2023-03-29T06:44:59.043Z,997.00
2023-03-29T06:45:59.080Z,992.00
2023-03-29T06:46:59.050Z,982.00
2023-03-29T06:47:59.147Z,958.00
2023-03-29T06:48:59.068Z,950.00
2023-03-29T06:49:59.080Z,953.00
2023-03-29T06:50:59.064Z,963.00
2023-03-29T06:51:59.289Z,964.00
2023-03-29T06:52:59.083Z,974.00
2023-03-29T06:53:59.071Z,989.00
2023-03-29T06:54:59.092Z,995.00
2023-03-29T06:55:59.098Z,1006.00
2023-03-29T06:56:59.135Z,1006.00
2023-03-29T06:58:01.686Z,1000.00
2023-03-29T06:58:59.177Z,990.00
2023-03-29T06:59:59.136Z,988.00
2023-03-29T07:00:59.148Z,983.00
2023-03-29T07:01:59.240Z,986.00
2023-03-29T07:02:59.191Z,990.00
2023-03-29T07:03:59.207Z,991.00
2023-03-29T07:04:59.177Z,989.00
2023-03-29T07:05:59.383Z,988.00
2023-03-29T07:06:59.187Z,985.00
2023-03-29T07:07:59.213Z,983.00
2023-03-29T07:08:59.202Z,964.00
2023-03-29T07:09:59.204Z,948.00
2023-03-29T07:10:59.431Z,946.00
2023-03-29T07:11:59.216Z,939.00
2023-03-29T07:12:59.209Z,933.00
2023-03-29T07:13:59.217Z,932.00
2023-03-29T07:14:59.230Z,926.00
2023-03-29T07:15:59.323Z,921.00
2023-03-29T07:16:59.246Z,996.00
2023-03-29T07:17:59.309Z,967.00
2023-03-29T07:18:59.283Z,995.00
2023-03-29T07:19:59.491Z,1021.00
2023-03-29T07:20:59.353Z,1100.00
2023-03-29T07:21:59.286Z,1160.00
2023-03-29T07:22:59.322Z,1024.00
2023-03-29T07:23:59.381Z,1114.00
2023-03-29T07:24:59.341Z,1105.00
2023-03-29T07:25:59.324Z,1112.00
2023-03-29T07:27:04.226Z,1117.00
2023-03-29T07:28:00.360Z,1118.00
2023-03-29T07:28:59.350Z,1117.00
2023-03-29T07:29:59.365Z,1099.00
2023-03-29T07:30:59.568Z,1084.00
2023-03-29T07:31:59.374Z,1061.00
2023-03-29T07:32:59.621Z,1033.00
2023-03-29T07:33:59.372Z,1018.00
2023-03-29T07:34:59.370Z,1003.00
2023-03-29T07:36:00.302Z,971.00
2023-03-29T07:36:59.401Z,959.00
2023-03-29T07:37:59.381Z,964.00
2023-03-29T07:38:59.396Z,973.00
2023-03-29T07:39:59.382Z,980.00
2023-03-29T07:40:59.461Z,986.00
2023-03-29T07:41:59.739Z,998.00
2023-03-29T07:42:59.413Z,999.00
2023-03-29T07:43:59.403Z,1005.00
2023-03-29T07:44:59.409Z,999.00
2023-03-29T07:45:59.413Z,996.00
2023-03-29T07:46:59.415Z,995.00
2023-03-29T07:47:59.567Z,995.00
2023-03-29T07:48:59.453Z,995.00
2023-03-29T07:49:59.422Z,999.00
2023-03-29T07:50:59.457Z,997.00
2023-03-29T07:51:59.506Z,993.00
2023-03-29T07:52:59.562Z,990.00
2023-03-29T07:53:59.614Z,986.00
2023-03-29T07:54:59.656Z,984.00
2023-03-29T07:55:59.717Z,978.00
2023-03-29T07:56:59.865Z,972.00
2023-03-29T07:57:59.826Z,969.00
2023-03-29T07:58:59.856Z,964.00
2023-03-29T07:59:59.918Z,958.00
2023-03-29T08:01:00.221Z,956.00
2023-03-29T08:02:00.039Z,955.00
2023-03-29T08:03:00.152Z,953.00
2023-03-29T08:04:00.157Z,948.00
2023-03-29T08:05:00.201Z,942.00
2023-03-29T08:06:00.214Z,939.00
2023-03-29T08:07:00.400Z,927.00
2023-03-29T08:08:00.316Z,922.00
2023-03-29T08:09:00.366Z,923.00
2023-03-29T08:10:00.411Z,923.00
2023-03-29T08:11:02.501Z,983.00
2023-03-29T08:12:00.518Z,1010.00
2023-03-29T08:13:00.565Z,954.00
2023-03-29T08:14:00.686Z,1151.00
2023-03-29T08:15:01.108Z,1322.00
2023-03-29T08:16:00.763Z,1308.00
2023-03-29T08:17:00.788Z,1390.00
2023-03-29T08:18:00.833Z,1373.00
2023-03-29T08:19:00.856Z,1460.00
2023-03-29T08:20:00.869Z,1566.00
2023-03-29T08:21:01.061Z,1660.00
2023-03-29T08:22:00.941Z,1624.00
2023-03-29T08:23:00.992Z,1755.00
2023-03-29T08:24:01.066Z,1871.00
2023-03-29T08:25:01.091Z,1887.00
2023-03-29T08:26:01.117Z,1849.00
2023-03-29T08:27:01.153Z,1755.00
2023-03-29T08:28:01.197Z,1748.00
2023-03-29T08:29:01.218Z,1745.00
2023-03-29T08:30:01.346Z,1725.00
2023-03-29T08:31:01.461Z,1696.00
2023-03-29T08:32:01.305Z,1675.00
2023-03-29T08:33:01.417Z,1671.00
2023-03-29T08:34:01.375Z,1570.00
2023-03-29T08:35:01.458Z,1482.00
2023-03-29T08:36:01.432Z,1514.00
2023-03-29T08:37:01.459Z,1524.00
2023-03-29T08:38:01.492Z,1585.00
2023-03-29T08:39:01.541Z,1530.00
2023-03-29T08:40:01.590Z,1554.00
2023-03-29T08:41:01.758Z,1540.00
2023-03-29T08:42:01.661Z,1534.00
2023-03-29T08:43:01.698Z,1540.00
2023-03-29T08:44:01.726Z,1532.00
2023-03-29T08:45:01.768Z,1486.00
2023-03-29T08:46:01.831Z,1443.00
2023-03-29T08:47:01.829Z,1441.00
2023-03-29T08:48:01.880Z,1436.00
2023-03-29T08:49:01.797Z,1429.00
2023-03-29T08:50:01.784Z,1416.00
2023-03-29T08:51:02.096Z,1369.00
2023-03-29T08:52:01.869Z,1353.00
2023-03-29T08:53:01.787Z,1343.00
2023-03-29T08:54:01.780Z,1338.00
2023-03-29T08:55:02.712Z,1334.00
2023-03-29T08:56:01.783Z,1323.00
2023-03-29T08:57:01.849Z,1294.00
2023-03-29T08:58:01.824Z,1290.00
2023-03-29T08:59:01.860Z,1277.00
2023-03-29T09:00:01.908Z,1271.00
2023-03-29T09:01:02.132Z,1262.00
2023-03-29T09:02:02.031Z,1250.00
2023-03-29T09:03:02.090Z,1209.00
2023-03-29T09:04:03.065Z,1213.00
2023-03-29T09:05:02.032Z,1209.00
2023-03-29T09:06:02.024Z,1104.00
2023-03-29T09:07:02.007Z,1153.00
2023-03-29T09:08:02.043Z,1172.00
2023-03-29T09:09:02.025Z,1175.00
2023-03-29T09:10:02.060Z,1172.00
2023-03-29T09:11:02.282Z,1171.00
2023-03-29T09:12:02.042Z,1167.00
2023-03-29T09:13:02.090Z,1157.00
2023-03-29T09:14:02.044Z,1137.00
2023-03-29T09:15:02.070Z,1119.00
2023-03-29T09:16:02.112Z,1047.00
2023-03-29T09:17:02.113Z,1135.00
2023-03-29T09:18:02.176Z,1183.00
2023-03-29T09:19:02.175Z,1260.00
2023-03-29T09:20:02.201Z,1255.00
2023-03-29T09:21:03.326Z,1323.00
2023-03-29T09:22:02.276Z,1315.00
2023-03-29T09:23:02.317Z,1340.00
2023-03-29T09:24:02.349Z,1231.00
2023-03-29T09:25:02.393Z,1395.00
2023-03-29T09:26:02.466Z,1263.00
2023-03-29T09:27:03.285Z,1257.00
2023-03-29T09:28:02.577Z,1244.00
2023-03-29T09:29:02.629Z,1229.00
2023-03-29T09:30:02.682Z,1218.00
2023-03-29T09:31:02.889Z,1213.00
2023-03-29T09:32:02.804Z,1211.00
2023-03-29T09:33:02.848Z,1209.00
2023-03-29T09:34:02.823Z,1174.00
2023-03-29T09:35:02.912Z,1166.00
2023-03-29T09:36:03.059Z,1168.00
2023-03-29T09:37:02.943Z,1177.00
2023-03-29T09:38:02.988Z,1190.00
2023-03-29T09:39:03.027Z,1189.00
2023-03-29T09:40:05.076Z,1186.00
2023-03-29T09:41:03.258Z,1172.00
2023-03-29T09:42:03.143Z,1169.00
2023-03-29T09:43:03.189Z,1164.00
2023-03-29T09:44:03.231Z,1159.00
2023-03-29T09:45:03.258Z,1162.00
2023-03-29T09:46:03.357Z,1170.00
2023-03-29T09:47:03.350Z,1163.00
2023-03-29T09:48:03.790Z,1159.00
2023-03-29T09:49:03.447Z,1147.00
2023-03-29T09:50:03.510Z,1140.00
2023-03-29T09:51:03.726Z,1211.00
2023-03-29T09:52:04.218Z,1218.00
2023-03-29T09:53:03.638Z,1218.00
2023-03-29T09:54:03.690Z,1208.00
2023-03-29T09:55:03.744Z,1137.00
2023-03-29T09:56:03.781Z,1110.00
2023-03-29T09:57:03.865Z,1110.00
2023-03-29T09:58:03.886Z,1125.00
2023-03-29T09:59:03.919Z,1119.00
2023-03-29T10:00:04.002Z,1115.00
2023-03-29T10:01:04.196Z,1114.00
2023-03-29T10:02:04.052Z,1114.00
2023-03-29T10:03:04.264Z,1108.00
2023-03-29T10:04:04.184Z,1105.00
2023-03-29T10:05:04.189Z,1103.00
2023-03-29T10:06:04.247Z,1099.00
2023-03-29T10:07:04.285Z,1097.00
2023-03-29T10:08:04.338Z,1098.00
2023-03-29T10:09:04.386Z,1096.00
2023-03-29T10:10:04.418Z,1103.00
2023-03-29T10:11:04.703Z,1133.00
2023-03-29T10:12:04.553Z,1089.00
2023-03-29T10:13:04.614Z,1121.00
2023-03-29T10:14:04.718Z,1235.00
2023-03-29T10:15:04.753Z,1244.00
2023-03-29T10:16:04.859Z,1258.00
2023-03-29T10:17:04.852Z,1197.00
2023-03-29T10:18:04.927Z,1128.00
2023-03-29T10:19:04.955Z,1144.00
2023-03-29T10:20:05.319Z,1120.00
2023-03-29T10:21:05.288Z,1125.00
2023-03-29T10:22:05.096Z,1115.00
2023-03-29T10:23:05.126Z,1090.00
2023-03-29T10:24:05.148Z,1075.00
2023-03-29T10:25:05.192Z,1081.00
2023-03-29T10:26:05.209Z,1092.00
2023-03-29T10:27:05.260Z,1100.00
2023-03-29T10:28:05.309Z,1101.00
2023-03-29T10:29:05.330Z,1096.00
2023-03-29T10:30:05.360Z,1096.00
2023-03-29T10:31:05.689Z,1100.00
2023-03-29T10:32:05.470Z,1111.00
2023-03-29T10:33:05.523Z,1110.00
2023-03-29T10:34:05.537Z,1113.00
2023-03-29T10:35:05.561Z,1114.00
2023-03-29T10:36:05.676Z,1115.00
2023-03-29T10:37:05.645Z,1109.00
2023-03-29T10:38:05.682Z,1107.00
2023-03-29T10:39:06.549Z,1110.00
2023-03-29T10:40:05.775Z,1115.00
2023-03-29T10:41:05.808Z,1115.00
2023-03-29T10:42:05.869Z,1115.00
2023-03-29T10:43:05.893Z,1109.00
2023-03-29T10:44:05.965Z,1101.00
2023-03-29T10:45:05.997Z,1098.00
2023-03-29T10:46:06.036Z,1097.00
2023-03-29T10:47:06.044Z,1093.00
2023-03-29T10:48:06.196Z,1099.00
2023-03-29T10:49:06.223Z,1108.00
2023-03-29T10:50:06.165Z,1113.00
2023-03-29T10:51:06.215Z,1114.00
2023-03-29T10:52:06.250Z,1113.00
2023-03-29T10:53:06.295Z,1108.00
2023-03-29T10:54:06.328Z,1107.00
2023-03-29T10:55:06.370Z,1102.00
2023-03-29T10:56:06.409Z,1097.00
2023-03-29T10:57:06.556Z,1096.00
2023-03-29T10:58:06.490Z,1098.00
2023-03-29T10:59:06.525Z,1102.00
2023-03-29T11:00:06.566Z,1096.00
2023-03-29T11:01:06.668Z,1090.00
2023-03-29T11:02:06.654Z,1123.00
2023-03-29T11:03:06.759Z,1208.00
2023-03-29T11:04:07.011Z,1137.00
2023-03-29T11:05:06.837Z,1090.00
2023-03-29T11:06:06.966Z,1083.00
2023-03-29T11:07:06.949Z,1086.00
2023-03-29T11:08:07.000Z,1077.00
2023-03-29T11:09:07.039Z,1074.00
2023-03-29T11:10:07.111Z,1068.00
2023-03-29T11:11:07.201Z,1073.00
2023-03-29T11:12:15.636Z,1082.00
2023-03-29T11:13:08.725Z,1085.00
2023-03-29T11:14:07.721Z,1085.00
2023-03-29T11:15:07.208Z,1088.00
2023-03-29T11:16:07.352Z,1090.00
2023-03-29T11:17:07.209Z,1088.00
2023-03-29T11:18:07.273Z,1087.00
2023-03-29T11:19:07.222Z,1081.00
2023-03-29T11:20:07.218Z,1083.00
2023-03-29T11:21:10.673Z,1084.00
2023-03-29T11:22:07.250Z,1087.00
2023-03-29T11:23:07.252Z,1084.00
2023-03-29T11:24:07.247Z,1085.00
2023-03-29T11:25:07.257Z,1084.00
2023-03-29T11:26:07.246Z,1086.00
2023-03-29T11:27:07.259Z,1086.00
2023-03-29T11:28:07.265Z,1085.00
2023-03-29T11:29:07.267Z,1083.00
2023-03-29T11:30:07.267Z,1080.00
2023-03-29T11:31:07.302Z,1080.00
2023-03-29T11:32:07.265Z,1081.00
2023-03-29T11:33:07.282Z,1079.00
2023-03-29T11:34:07.289Z,1074.00
2023-03-29T11:35:07.375Z,1069.00
2023-03-29T11:36:07.355Z,1064.00
2023-03-29T11:37:07.295Z,1061.00
2023-03-29T11:38:07.386Z,1062.00
2023-03-29T11:39:07.299Z,1068.00
2023-03-29T11:40:07.314Z,1068.00
2023-03-29T11:41:07.314Z,1062.00
2023-03-29T11:42:07.314Z,1061.00
2023-03-29T11:43:07.339Z,1060.00
2023-03-29T11:44:07.337Z,1061.00
2023-03-29T11:45:07.385Z,1063.00
2023-03-29T11:46:07.394Z,1064.00
2023-03-29T11:47:07.353Z,1068.00
2023-03-29T11:48:07.507Z,1077.00
2023-03-29T11:49:07.462Z,1090.00
2023-03-29T11:50:07.384Z,1095.00
2023-03-29T11:51:07.380Z,1098.00
2023-03-29T11:52:07.390Z,1105.00
2023-03-29T11:53:07.400Z,1103.00
2023-03-29T11:54:07.401Z,1100.00
2023-03-29T11:55:07.428Z,1096.00
2023-03-29T11:56:07.414Z,1095.00
2023-03-29T11:57:07.434Z,1094.00
2023-03-29T11:58:07.422Z,1092.00
2023-03-29T11:59:07.548Z,1092.00
2023-03-29T12:00:07.448Z,1087.00
2023-03-29T12:01:07.460Z,1088.00
2023-03-29T12:02:07.585Z,1087.00
2023-03-29T12:03:07.553Z,1087.00
2023-03-29T12:04:07.574Z,1085.00
2023-03-29T12:05:07.500Z,1084.00
2023-03-29T12:06:07.494Z,1081.00
2023-03-29T12:07:07.489Z,1080.00
2023-03-29T12:08:07.522Z,1081.00
2023-03-29T12:09:08.218Z,1083.00
2023-03-29T12:10:07.624Z,1085.00
2023-03-29T12:11:07.664Z,1081.00
2023-03-29T12:12:08.238Z,1079.00
2023-03-29T12:13:07.742Z,1068.00
2023-03-29T12:14:07.789Z,1062.00
2023-03-29T12:15:07.845Z,1064.00
2023-03-29T12:16:07.953Z,1058.00
2023-03-29T12:17:07.954Z,1055.00
2023-03-29T12:18:08.078Z,1187.00
2023-03-29T12:19:08.036Z,1206.00
2023-03-29T12:20:08.135Z,1198.00